WSSL

Seletar Airport

Seletar, Singapore
TAF WSSL 260500Z 2606/2712 28007KT 9999 FEW018CB SCT020 TEMPO 2606/2609 3000 TSRA FEW012CB BKN015 TEMPO 2707/2711 3000 TSRA FEW012CB BKN015
Issued Valid From Valid To
Apr-26 @ 05:00 UTC
(53 minutes ago)
Apr-26 @ 06:00 UTC
(in 7 minutes)
Apr-27 @ 12:00 UTC
(-1 days ago)
Apr-26 @ 06:00 to Apr-27 @ 12:00
TAF WSSL 260500Z 2606/2712 28007KT 9999 FEW018CB SCT020
Wind Visibility Clouds
280° at 7 knots 10,000+ meters
  • Few at 1,800' AGL
  • Scattered at 2,000' AGL
Temporary Apr-26 @ 06:00 to Apr-26 @ 09:00
TEMPO 2606/2609 3000 TSRA FEW012CB BKN015
Visibility Clouds Conditions
2,993 meters
  • Few at 1,200' AGL
  • Broken at 1,500' AGL
  • Thunderstorm
  • Rain
Temporary Apr-27 @ 07:00 to Apr-27 @ 11:00
TEMPO 2707/2711 3000 TSRA FEW012CB BKN015
Visibility Clouds Conditions
2,993 meters
  • Few at 1,200' AGL
  • Broken at 1,500' AGL
  • Thunderstorm
  • Rain
TAF WSSL 260500Z 2606/2712 28007KT 9999 FEW018CB SCT020 TEMPO 2606/2609 3000 TSRA FEW012CB BKN015 TEMPO 2707/2711 3000 TSRA FEW012CB BKN015
Issued Apr-26 @ 05:00 UTC
(53 minutes ago)
Valid From Apr-26 @ 06:00 UTC
(in 7 minutes)
Valid To Apr-27 @ 12:00 UTC
(-1 days ago)
Apr-26 @ 06:00 - Apr-27 @ 12:00
Wind Visibility
280° at 7 knots 10,000+ meters
Clouds
  • Few at 1,800' AGL
  • Scattered at 2,000' AGL
Temporary Apr-26 @ 06:00 - Apr-26 @ 09:00
Clouds
  • Few at 1,200' AGL
  • Broken at 1,500' AGL
Conditions
  • Thunderstorm
  • Rain
Temporary Apr-27 @ 07:00 - Apr-27 @ 11:00
Clouds
  • Few at 1,200' AGL
  • Broken at 1,500' AGL
Conditions
  • Thunderstorm
  • Rain